Terminal Aerodrome Forecast
Issued by NWS

Home | Current Version | Previous Version | Text Only | Print | Product List | Glossary On
Versions: 1 2 3 4 5 6 7 8 9 10 11 12 13 14 15 16 17 18 19 20 21 22 23 24 25 26 27 28
000
FTPQ31 PGUM 291120
TAFGUM
TAF

TAF
PTRO 291120Z 2912/3012 VRB06KT P6SM VCTS SCT016CB BKN040 OVC120
      TEMPO 2912/2914 28010G20KT 3SM TSRA BKN015CB OVC050
     FM291400 27012KT P6SM VCSH SCT016 SCT040 BKN110
      TEMPO 2914/2918 27010G18KT 6SM -SHRA BKN016 BKN050 OVC110=

USA.gov is the U.S. government's official web portal to all federal, state and local government web resources and services.